sensor_id;sensor_type;location;lat;lon;timestamp;P1;durP1;ratioP1;P2;durP2;ratioP2
37201;SDS011;37799;52.390;6.136;2022-07-17T00:01:47;2.95;;;0.50;;
37201;SDS011;37799;52.390;6.136;2022-07-17T00:04:12;1.85;;;0.40;;
37201;SDS011;37799;52.390;6.136;2022-07-17T00:06:37;2.90;;;0.68;;
37201;SDS011;37799;52.390;6.136;2022-07-17T00:09:03;3.97;;;0.43;;
37201;SDS011;37799;52.390;6.136;2022-07-17T00:11:28;1.75;;;0.55;;
37201;SDS011;37799;52.390;6.136;2022-07-17T00:13:54;1.98;;;0.50;;
37201;SDS011;37799;52.390;6.136;2022-07-17T00:16:19;4.65;;;0.50;;
37201;SDS011;37799;52.390;6.136;2022-07-17T00:18:45;2.25;;;0.40;;
37201;SDS011;37799;52.390;6.136;2022-07-17T00:21:10;2.17;;;0.40;;
37201;SDS011;37799;52.390;6.136;2022-07-17T00:23:35;1.70;;;0.40;;
37201;SDS011;37799;52.390;6.136;2022-07-17T00:26:01;3.20;;;0.65;;
37201;SDS011;37799;52.390;6.136;2022-07-17T00:28:26;3.83;;;0.40;;
37201;SDS011;37799;52.390;6.136;2022-07-17T00:30:51;2.25;;;0.40;;
37201;SDS011;37799;52.390;6.136;2022-07-17T00:33:17;5.30;;;0.47;;
37201;SDS011;37799;52.390;6.136;2022-07-17T00:35:42;3.20;;;0.50;;
37201;SDS011;37799;52.390;6.136;2022-07-17T00:38:07;2.15;;;0.60;;
37201;SDS011;37799;52.390;6.136;2022-07-17T00:40:32;3.42;;;0.57;;
37201;SDS011;37799;52.390;6.136;2022-07-17T00:42:58;2.95;;;0.60;;
37201;SDS011;37799;52.390;6.136;2022-07-17T00:45:23;2.08;;;0.50;;
37201;SDS011;37799;52.390;6.136;2022-07-17T00:50:18;2.30;;;0.50;;
37201;SDS011;37799;52.390;6.136;2022-07-17T00:52:45;5.43;;;0.80;;
37201;SDS011;37799;52.390;6.136;2022-07-17T00:55:11;2.63;;;0.50;;
37201;SDS011;37799;52.390;6.136;2022-07-17T00:57:38;1.27;;;0.30;;
37201;SDS011;37799;52.390;6.136;2022-07-17T01:00:05;2.15;;;0.40;;
37201;SDS011;37799;52.390;6.136;2022-07-17T01:02:34;7.03;;;0.50;;
37201;SDS011;37799;52.390;6.136;2022-07-17T01:05:00;2.53;;;0.47;;
37201;SDS011;37799;52.390;6.136;2022-07-17T01:07:26;3.55;;;0.40;;
37201;SDS011;37799;52.390;6.136;2022-07-17T01:09:51;1.00;;;0.30;;
37201;SDS011;37799;52.390;6.136;2022-07-17T01:12:17;2.25;;;0.40;;
37201;SDS011;37799;52.390;6.136;2022-07-17T01:14:42;2.88;;;0.50;;
37201;SDS011;37799;52.390;6.136;2022-07-17T01:17:08;2.10;;;0.40;;
37201;SDS011;37799;52.390;6.136;2022-07-17T01:19:34;2.28;;;0.50;;
37201;SDS011;37799;52.390;6.136;2022-07-17T01:22:00;2.72;;;0.50;;
37201;SDS011;37799;52.390;6.136;2022-07-17T01:24:25;1.02;;;0.30;;
37201;SDS011;37799;52.390;6.136;2022-07-17T01:26:50;5.75;;;0.50;;
37201;SDS011;37799;52.390;6.136;2022-07-17T01:29:16;1.40;;;0.40;;
37201;SDS011;37799;52.390;6.136;2022-07-17T01:31:41;3.00;;;0.55;;
37201;SDS011;37799;52.390;6.136;2022-07-17T01:34:08;3.85;;;0.70;;
37201;SDS011;37799;52.390;6.136;2022-07-17T01:36:35;2.13;;;0.45;;
37201;SDS011;37799;52.390;6.136;2022-07-17T01:39:01;4.53;;;0.40;;
37201;SDS011;37799;52.390;6.136;2022-07-17T01:41:28;2.92;;;0.40;;
37201;SDS011;37799;52.390;6.136;2022-07-17T01:43:53;2.13;;;0.47;;
37201;SDS011;37799;52.390;6.136;2022-07-17T01:46:19;3.42;;;0.40;;
37201;SDS011;37799;52.390;6.136;2022-07-17T01:48:44;3.13;;;0.40;;
37201;SDS011;37799;52.390;6.136;2022-07-17T01:51:10;2.30;;;0.50;;
37201;SDS011;37799;52.390;6.136;2022-07-17T01:53:35;2.15;;;0.57;;
37201;SDS011;37799;52.390;6.136;2022-07-17T01:56:00;4.55;;;0.50;;
37201;SDS011;37799;52.390;6.136;2022-07-17T01:58:26;2.15;;;0.52;;
37201;SDS011;37799;52.390;6.136;2022-07-17T02:00:52;2.08;;;0.40;;
37201;SDS011;37799;52.390;6.136;2022-07-17T02:03:18;2.67;;;0.50;;
37201;SDS011;37799;52.390;6.136;2022-07-17T02:05:44;3.22;;;0.60;;
37201;SDS011;37799;52.390;6.136;2022-07-17T02:08:10;2.75;;;0.50;;
37201;SDS011;37799;52.390;6.136;2022-07-17T02:10:35;3.58;;;1.00;;
37201;SDS011;37799;52.390;6.136;2022-07-17T02:13:00;1.90;;;0.32;;
37201;SDS011;37799;52.390;6.136;2022-07-17T02:15:26;2.95;;;0.32;;
37201;SDS011;37799;52.390;6.136;2022-07-17T02:17:52;1.67;;;0.40;;
37201;SDS011;37799;52.390;6.136;2022-07-17T02:20:17;3.80;;;0.50;;
37201;SDS011;37799;52.390;6.136;2022-07-17T02:22:43;2.67;;;0.35;;
37201;SDS011;37799;52.390;6.136;2022-07-17T02:25:09;2.55;;;0.50;;
37201;SDS011;37799;52.390;6.136;2022-07-17T02:27:35;2.92;;;0.70;;
37201;SDS011;37799;52.390;6.136;2022-07-17T02:30:02;2.08;;;0.47;;
37201;SDS011;37799;52.390;6.136;2022-07-17T02:32:29;2.95;;;0.68;;
37201;SDS011;37799;52.390;6.136;2022-07-17T02:34:55;1.90;;;0.52;;
37201;SDS011;37799;52.390;6.136;2022-07-17T02:37:20;3.50;;;0.57;;
37201;SDS011;37799;52.390;6.136;2022-07-17T02:39:45;2.53;;;0.50;;
37201;SDS011;37799;52.390;6.136;2022-07-17T02:42:22;2.60;;;0.50;;
37201;SDS011;37799;52.390;6.136;2022-07-17T02:44:49;1.60;;;0.30;;
37201;SDS011;37799;52.390;6.136;2022-07-17T02:47:22;4.43;;;0.47;;
37201;SDS011;37799;52.390;6.136;2022-07-17T02:49:50;1.95;;;0.35;;
37201;SDS011;37799;52.390;6.136;2022-07-17T02:52:16;1.95;;;0.32;;
37201;SDS011;37799;52.390;6.136;2022-07-17T02:54:41;2.15;;;0.60;;
37201;SDS011;37799;52.390;6.136;2022-07-17T02:57:07;2.25;;;0.30;;
37201;SDS011;37799;52.390;6.136;2022-07-17T02:59:32;2.75;;;0.50;;
37201;SDS011;37799;52.390;6.136;2022-07-17T03:01:58;1.35;;;0.25;;
37201;SDS011;37799;52.390;6.136;2022-07-17T03:04:23;2.05;;;0.40;;
37201;SDS011;37799;52.390;6.136;2022-07-17T03:06:48;1.15;;;0.38;;
37201;SDS011;37799;52.390;6.136;2022-07-17T03:09:14;1.38;;;0.30;;
37201;SDS011;37799;52.390;6.136;2022-07-17T03:11:39;1.27;;;0.20;;
37201;SDS011;37799;52.390;6.136;2022-07-17T03:14:04;4.43;;;0.75;;
37201;SDS011;37799;52.390;6.136;2022-07-17T03:16:30;1.67;;;0.20;;
37201;SDS011;37799;52.390;6.136;2022-07-17T03:18:55;2.63;;;0.40;;
37201;SDS011;37799;52.390;6.136;2022-07-17T03:21:20;1.13;;;0.20;;
37201;SDS011;37799;52.390;6.136;2022-07-17T03:23:45;1.25;;;0.20;;
37201;SDS011;37799;52.390;6.136;2022-07-17T03:26:11;3.22;;;0.50;;
37201;SDS011;37799;52.390;6.136;2022-07-17T03:28:36;2.88;;;0.50;;
37201;SDS011;37799;52.390;6.136;2022-07-17T03:31:01;1.75;;;0.40;;
37201;SDS011;37799;52.390;6.136;2022-07-17T03:33:26;2.85;;;0.40;;
37201;SDS011;37799;52.390;6.136;2022-07-17T03:35:52;1.15;;;0.32;;
37201;SDS011;37799;52.390;6.136;2022-07-17T03:38:17;1.50;;;0.55;;
37201;SDS011;37799;52.390;6.136;2022-07-17T03:40:42;2.90;;;0.52;;
37201;SDS011;37799;52.390;6.136;2022-07-17T03:43:08;3.38;;;0.57;;
37201;SDS011;37799;52.390;6.136;2022-07-17T03:45:33;2.47;;;0.57;;
37201;SDS011;37799;52.390;6.136;2022-07-17T03:47:58;2.65;;;0.40;;
37201;SDS011;37799;52.390;6.136;2022-07-17T03:50:23;2.40;;;0.30;;
37201;SDS011;37799;52.390;6.136;2022-07-17T03:52:49;2.05;;;0.43;;
37201;SDS011;37799;52.390;6.136;2022-07-17T03:55:14;2.20;;;0.40;;
37201;SDS011;37799;52.390;6.136;2022-07-17T03:57:39;2.60;;;0.40;;
37201;SDS011;37799;52.390;6.136;2022-07-17T04:00:05;3.47;;;0.57;;
37201;SDS011;37799;52.390;6.136;2022-07-17T04:02:31;2.22;;;0.40;;
37201;SDS011;37799;52.390;6.136;2022-07-17T04:04:56;2.17;;;0.47;;
37201;SDS011;37799;52.390;6.136;2022-07-17T04:07:21;3.53;;;0.70;;
37201;SDS011;37799;52.390;6.136;2022-07-17T04:12:24;3.85;;;0.40;;
37201;SDS011;37799;52.390;6.136;2022-07-17T04:14:50;1.70;;;0.30;;
37201;SDS011;37799;52.390;6.136;2022-07-17T04:17:16;2.03;;;0.50;;
37201;SDS011;37799;52.390;6.136;2022-07-17T04:19:41;2.45;;;0.45;;
37201;SDS011;37799;52.390;6.136;2022-07-17T04:22:06;2.33;;;0.70;;
37201;SDS011;37799;52.390;6.136;2022-07-17T04:24:32;2.83;;;0.60;;
37201;SDS011;37799;52.390;6.136;2022-07-17T04:26:57;3.45;;;0.47;;
37201;SDS011;37799;52.390;6.136;2022-07-17T04:29:22;2.92;;;0.40;;
37201;SDS011;37799;52.390;6.136;2022-07-17T04:31:47;3.20;;;0.50;;
37201;SDS011;37799;52.390;6.136;2022-07-17T04:34:13;3.42;;;0.57;;
37201;SDS011;37799;52.390;6.136;2022-07-17T04:36:38;2.80;;;0.30;;
37201;SDS011;37799;52.390;6.136;2022-07-17T04:39:03;2.60;;;0.55;;
37201;SDS011;37799;52.390;6.136;2022-07-17T04:41:28;2.83;;;0.50;;
37201;SDS011;37799;52.390;6.136;2022-07-17T04:43:54;3.63;;;0.75;;
37201;SDS011;37799;52.390;6.136;2022-07-17T04:46:19;2.95;;;0.52;;
37201;SDS011;37799;52.390;6.136;2022-07-17T04:48:44;3.10;;;0.80;;
37201;SDS011;37799;52.390;6.136;2022-07-17T04:51:10;2.15;;;0.40;;
37201;SDS011;37799;52.390;6.136;2022-07-17T04:53:35;4.03;;;0.70;;
37201;SDS011;37799;52.390;6.136;2022-07-17T04:56:02;3.85;;;0.90;;
37201;SDS011;37799;52.390;6.136;2022-07-17T04:58:27;2.95;;;0.60;;
37201;SDS011;37799;52.390;6.136;2022-07-17T05:00:53;2.50;;;0.75;;
37201;SDS011;37799;52.390;6.136;2022-07-17T05:03:18;3.15;;;0.80;;
37201;SDS011;37799;52.390;6.136;2022-07-17T05:05:43;2.90;;;0.60;;
37201;SDS011;37799;52.390;6.136;2022-07-17T05:08:09;3.33;;;0.70;;
37201;SDS011;37799;52.390;6.136;2022-07-17T05:10:34;3.30;;;0.75;;
37201;SDS011;37799;52.390;6.136;2022-07-17T05:12:59;2.97;;;0.65;;
37201;SDS011;37799;52.390;6.136;2022-07-17T05:15:25;3.08;;;0.88;;
37201;SDS011;37799;52.390;6.136;2022-07-17T05:17:50;3.55;;;0.50;;
37201;SDS011;37799;52.390;6.136;2022-07-17T05:20:15;2.47;;;0.60;;
37201;SDS011;37799;52.390;6.136;2022-07-17T05:22:40;1.58;;;0.40;;
37201;SDS011;37799;52.390;6.136;2022-07-17T05:25:06;1.52;;;0.30;;
37201;SDS011;37799;52.390;6.136;2022-07-17T05:27:32;2.85;;;0.40;;
37201;SDS011;37799;52.390;6.136;2022-07-17T05:29:57;2.83;;;0.40;;
37201;SDS011;37799;52.390;6.136;2022-07-17T05:32:22;1.17;;;0.30;;
37201;SDS011;37799;52.390;6.136;2022-07-17T05:34:48;1.92;;;0.38;;
37201;SDS011;37799;52.390;6.136;2022-07-17T05:37:13;1.40;;;0.30;;
37201;SDS011;37799;52.390;6.136;2022-07-17T05:39:38;3.45;;;0.38;;
37201;SDS011;37799;52.390;6.136;2022-07-17T05:42:04;2.72;;;0.60;;
37201;SDS011;37799;52.390;6.136;2022-07-17T05:44:30;2.30;;;0.40;;
37201;SDS011;37799;52.390;6.136;2022-07-17T05:46:55;2.10;;;0.43;;
37201;SDS011;37799;52.390;6.136;2022-07-17T05:49:20;5.53;;;0.93;;
37201;SDS011;37799;52.390;6.136;2022-07-17T05:51:46;5.35;;;0.65;;
37201;SDS011;37799;52.390;6.136;2022-07-17T05:54:11;2.67;;;0.40;;
37201;SDS011;37799;52.390;6.136;2022-07-17T05:56:36;4.20;;;0.55;;
37201;SDS011;37799;52.390;6.136;2022-07-17T05:59:01;3.67;;;0.40;;
37201;SDS011;37799;52.390;6.136;2022-07-17T06:01:27;2.28;;;0.43;;
37201;SDS011;37799;52.390;6.136;2022-07-17T06:03:52;5.60;;;0.70;;
37201;SDS011;37799;52.390;6.136;2022-07-17T06:06:17;1.60;;;0.35;;
37201;SDS011;37799;52.390;6.136;2022-07-17T06:08:43;1.90;;;0.40;;
37201;SDS011;37799;52.390;6.136;2022-07-17T06:11:08;1.20;;;0.20;;
37201;SDS011;37799;52.390;6.136;2022-07-17T06:13:33;1.58;;;0.22;;
37201;SDS011;37799;52.390;6.136;2022-07-17T06:15:58;1.90;;;0.53;;
37201;SDS011;37799;52.390;6.136;2022-07-17T06:18:24;2.78;;;0.43;;
37201;SDS011;37799;52.390;6.136;2022-07-17T06:20:50;4.70;;;0.50;;
37201;SDS011;37799;52.390;6.136;2022-07-17T06:23:16;3.27;;;0.70;;
37201;SDS011;37799;52.390;6.136;2022-07-17T06:25:41;3.03;;;0.47;;
37201;SDS011;37799;52.390;6.136;2022-07-17T06:28:06;3.90;;;0.40;;
37201;SDS011;37799;52.390;6.136;2022-07-17T06:30:31;2.80;;;0.30;;
37201;SDS011;37799;52.390;6.136;2022-07-17T06:32:57;3.17;;;0.40;;
37201;SDS011;37799;52.390;6.136;2022-07-17T06:35:22;3.08;;;0.40;;
37201;SDS011;37799;52.390;6.136;2022-07-17T06:37:47;2.27;;;0.27;;
37201;SDS011;37799;52.390;6.136;2022-07-17T06:40:13;2.83;;;0.70;;
37201;SDS011;37799;52.390;6.136;2022-07-17T06:42:38;1.90;;;0.30;;
37201;SDS011;37799;52.390;6.136;2022-07-17T06:45:03;2.40;;;0.47;;
37201;SDS011;37799;52.390;6.136;2022-07-17T06:47:29;1.35;;;0.28;;
37201;SDS011;37799;52.390;6.136;2022-07-17T06:49:54;3.25;;;0.40;;
37201;SDS011;37799;52.390;6.136;2022-07-17T06:52:20;3.40;;;0.43;;
37201;SDS011;37799;52.390;6.136;2022-07-17T06:54:45;6.17;;;0.60;;
37201;SDS011;37799;52.390;6.136;2022-07-17T06:57:10;1.77;;;0.20;;
37201;SDS011;37799;52.390;6.136;2022-07-17T06:59:35;1.13;;;0.10;;
37201;SDS011;37799;52.390;6.136;2022-07-17T07:02:01;1.17;;;0.20;;
37201;SDS011;37799;52.390;6.136;2022-07-17T07:04:26;3.80;;;0.40;;
37201;SDS011;37799;52.390;6.136;2022-07-17T07:06:51;1.40;;;0.20;;
37201;SDS011;37799;52.390;6.136;2022-07-17T07:09:16;2.47;;;0.55;;
37201;SDS011;37799;52.390;6.136;2022-07-17T07:11:42;1.13;;;0.20;;
37201;SDS011;37799;52.390;6.136;2022-07-17T07:14:07;0.95;;;0.13;;
37201;SDS011;37799;52.390;6.136;2022-07-17T07:16:33;3.00;;;0.15;;
37201;SDS011;37799;52.390;6.136;2022-07-17T07:18:59;0.93;;;0.10;;
37201;SDS011;37799;52.390;6.136;2022-07-17T07:21:25;2.47;;;0.20;;
37201;SDS011;37799;52.390;6.136;2022-07-17T07:23:51;3.40;;;0.55;;
37201;SDS011;37799;52.390;6.136;2022-07-17T07:26:17;1.55;;;0.10;;
37201;SDS011;37799;52.390;6.136;2022-07-17T07:28:42;0.63;;;0.17;;
37201;SDS011;37799;52.390;6.136;2022-07-17T07:31:07;0.97;;;0.10;;
37201;SDS011;37799;52.390;6.136;2022-07-17T07:33:33;1.15;;;0.10;;
37201;SDS011;37799;52.390;6.136;2022-07-17T07:35:58;1.83;;;0.20;;
37201;SDS011;37799;52.390;6.136;2022-07-17T07:38:24;2.58;;;0.20;;
37201;SDS011;37799;52.390;6.136;2022-07-17T07:40:49;2.23;;;0.30;;
37201;SDS011;37799;52.390;6.136;2022-07-17T07:43:14;3.72;;;0.63;;
37201;SDS011;37799;52.390;6.136;2022-07-17T07:45:40;2.30;;;0.23;;
37201;SDS011;37799;52.390;6.136;2022-07-17T07:48:05;4.30;;;0.25;;
37201;SDS011;37799;52.390;6.136;2022-07-17T07:50:30;3.47;;;0.20;;
37201;SDS011;37799;52.390;6.136;2022-07-17T07:52:56;3.80;;;0.40;;
37201;SDS011;37799;52.390;6.136;2022-07-17T07:55:21;0.20;;;0.10;;
37201;SDS011;37799;52.390;6.136;2022-07-17T07:57:50;1.67;;;0.20;;
37201;SDS011;37799;52.390;6.136;2022-07-17T08:00:26;2.38;;;0.30;;
37201;SDS011;37799;52.390;6.136;2022-07-17T08:02:52;0.60;;;0.00;;
37201;SDS011;37799;52.390;6.136;2022-07-17T08:05:17;1.33;;;0.10;;
37201;SDS011;37799;52.390;6.136;2022-07-17T08:07:42;2.25;;;0.20;;
37201;SDS011;37799;52.390;6.136;2022-07-17T08:10:08;0.83;;;0.10;;
37201;SDS011;37799;52.390;6.136;2022-07-17T08:12:33;1.92;;;0.28;;
37201;SDS011;37799;52.390;6.136;2022-07-17T08:14:58;1.27;;;0.20;;
37201;SDS011;37799;52.390;6.136;2022-07-17T08:17:23;1.43;;;0.10;;
37201;SDS011;37799;52.390;6.136;2022-07-17T08:19:49;3.80;;;0.30;;
37201;SDS011;37799;52.390;6.136;2022-07-17T08:22:14;2.53;;;0.10;;
37201;SDS011;37799;52.390;6.136;2022-07-17T08:24:39;4.23;;;0.40;;
37201;SDS011;37799;52.390;6.136;2022-07-17T08:27:05;2.17;;;0.10;;
37201;SDS011;37799;52.390;6.136;2022-07-17T08:29:30;2.05;;;0.13;;
37201;SDS011;37799;52.390;6.136;2022-07-17T08:31:55;0.70;;;0.10;;
37201;SDS011;37799;52.390;6.136;2022-07-17T08:34:21;1.98;;;0.10;;
37201;SDS011;37799;52.390;6.136;2022-07-17T08:36:46;3.53;;;0.20;;
37201;SDS011;37799;52.390;6.136;2022-07-17T08:39:13;0.93;;;0.20;;
37201;SDS011;37799;52.390;6.136;2022-07-17T08:41:38;3.00;;;0.10;;
37201;SDS011;37799;52.390;6.136;2022-07-17T08:44:04;3.10;;;0.10;;
37201;SDS011;37799;52.390;6.136;2022-07-17T08:46:30;1.15;;;0.10;;
37201;SDS011;37799;52.390;6.136;2022-07-17T08:49:00;5.97;;;0.47;;
37201;SDS011;37799;52.390;6.136;2022-07-17T08:51:27;3.42;;;0.13;;
37201;SDS011;37799;52.390;6.136;2022-07-17T08:53:53;2.85;;;0.10;;
37201;SDS011;37799;52.390;6.136;2022-07-17T08:56:19;1.70;;;0.20;;
37201;SDS011;37799;52.390;6.136;2022-07-17T08:58:44;1.80;;;0.10;;
37201;SDS011;37799;52.390;6.136;2022-07-17T09:01:10;0.60;;;0.10;;
37201;SDS011;37799;52.390;6.136;2022-07-17T09:03:35;0.60;;;0.10;;
37201;SDS011;37799;52.390;6.136;2022-07-17T09:06:01;1.42;;;0.20;;
37201;SDS011;37799;52.390;6.136;2022-07-17T09:08:27;0.20;;;0.00;;
37201;SDS011;37799;52.390;6.136;2022-07-17T09:10:57;3.08;;;0.20;;
37201;SDS011;37799;52.390;6.136;2022-07-17T09:15:49;2.77;;;0.10;;
37201;SDS011;37799;52.390;6.136;2022-07-17T09:18:16;1.17;;;0.30;;
37201;SDS011;37799;52.390;6.136;2022-07-17T09:23:17;0.63;;;0.05;;
37201;SDS011;37799;52.390;6.136;2022-07-17T09:25:45;2.05;;;0.10;;
37201;SDS011;37799;52.390;6.136;2022-07-17T09:28:14;1.88;;;0.10;;
37201;SDS011;37799;52.390;6.136;2022-07-17T09:30:42;0.45;;;0.03;;
37201;SDS011;37799;52.390;6.136;2022-07-17T09:33:16;2.70;;;0.05;;
37201;SDS011;37799;52.390;6.136;2022-07-17T09:35:56;1.70;;;0.10;;
37201;SDS011;37799;52.390;6.136;2022-07-17T09:38:41;1.38;;;0.17;;
37201;SDS011;37799;52.390;6.136;2022-07-17T09:43:45;0.57;;;0.10;;
37201;SDS011;37799;52.390;6.136;2022-07-17T09:49:03;2.20;;;0.20;;
37201;SDS011;37799;52.390;6.136;2022-07-17T09:51:33;0.65;;;0.10;;
37201;SDS011;37799;52.390;6.136;2022-07-17T09:54:02;1.33;;;0.10;;
37201;SDS011;37799;52.390;6.136;2022-07-17T09:56:32;0.90;;;0.08;;
37201;SDS011;37799;52.390;6.136;2022-07-17T09:59:07;2.60;;;0.20;;
37201;SDS011;37799;52.390;6.136;2022-07-17T10:01:34;1.02;;;0.15;;
37201;SDS011;37799;52.390;6.136;2022-07-17T10:04:01;0.80;;;0.10;;
37201;SDS011;37799;52.390;6.136;2022-07-17T10:06:27;1.30;;;0.17;;
37201;SDS011;37799;52.390;6.136;2022-07-17T10:08:53;2.35;;;0.28;;
37201;SDS011;37799;52.390;6.136;2022-07-17T10:11:21;0.57;;;0.10;;
37201;SDS011;37799;52.390;6.136;2022-07-17T10:13:49;1.38;;;0.20;;
37201;SDS011;37799;52.390;6.136;2022-07-17T10:16:23;1.30;;;0.10;;
37201;SDS011;37799;52.390;6.136;2022-07-17T10:18:49;0.32;;;0.10;;
37201;SDS011;37799;52.390;6.136;2022-07-17T10:21:18;2.35;;;0.20;;
37201;SDS011;37799;52.390;6.136;2022-07-17T10:23:48;1.17;;;0.10;;
37201;SDS011;37799;52.390;6.136;2022-07-17T10:26:32;0.88;;;0.10;;
37201;SDS011;37799;52.390;6.136;2022-07-17T10:29:01;0.55;;;0.10;;
37201;SDS011;37799;52.390;6.136;2022-07-17T10:31:29;0.52;;;0.00;;
37201;SDS011;37799;52.390;6.136;2022-07-17T10:33:59;2.10;;;0.10;;
37201;SDS011;37799;52.390;6.136;2022-07-17T10:36:35;1.40;;;0.10;;
37201;SDS011;37799;52.390;6.136;2022-07-17T10:39:13;0.75;;;0.10;;
37201;SDS011;37799;52.390;6.136;2022-07-17T10:41:40;1.17;;;0.13;;
37201;SDS011;37799;52.390;6.136;2022-07-17T10:44:06;0.73;;;0.10;;
37201;SDS011;37799;52.390;6.136;2022-07-17T10:46:31;1.42;;;0.35;;
37201;SDS011;37799;52.390;6.136;2022-07-17T10:48:56;0.20;;;0.00;;
37201;SDS011;37799;52.390;6.136;2022-07-17T10:51:23;0.15;;;0.00;;
37201;SDS011;37799;52.390;6.136;2022-07-17T10:53:49;1.33;;;0.10;;
37201;SDS011;37799;52.390;6.136;2022-07-17T10:56:14;0.47;;;0.10;;
37201;SDS011;37799;52.390;6.136;2022-07-17T10:58:42;0.20;;;0.00;;
37201;SDS011;37799;52.390;6.136;2022-07-17T11:01:14;1.27;;;0.20;;
37201;SDS011;37799;52.390;6.136;2022-07-17T11:03:44;0.50;;;0.00;;
37201;SDS011;37799;52.390;6.136;2022-07-17T11:08:49;0.35;;;0.03;;
37201;SDS011;37799;52.390;6.136;2022-07-17T11:11:38;1.27;;;0.00;;
37201;SDS011;37799;52.390;6.136;2022-07-17T11:14:12;0.50;;;0.10;;
37201;SDS011;37799;52.390;6.136;2022-07-17T11:16:49;1.13;;;0.10;;
37201;SDS011;37799;52.390;6.136;2022-07-17T11:19:31;0.85;;;0.10;;
37201;SDS011;37799;52.390;6.136;2022-07-17T11:21:59;0.60;;;0.10;;
37201;SDS011;37799;52.390;6.136;2022-07-17T11:24:35;1.98;;;0.10;;
37201;SDS011;37799;52.390;6.136;2022-07-17T11:27:11;2.45;;;0.10;;
37201;SDS011;37799;52.390;6.136;2022-07-17T11:29:43;2.40;;;0.20;;
37201;SDS011;37799;52.390;6.136;2022-07-17T11:32:08;2.20;;;0.13;;
37201;SDS011;37799;52.390;6.136;2022-07-17T11:34:34;1.25;;;0.17;;
37201;SDS011;37799;52.390;6.136;2022-07-17T11:36:59;2.07;;;0.20;;
37201;SDS011;37799;52.390;6.136;2022-07-17T11:39:26;1.17;;;0.10;;
37201;SDS011;37799;52.390;6.136;2022-07-17T11:42:02;0.38;;;0.10;;
37201;SDS011;37799;52.390;6.136;2022-07-17T11:44:28;1.45;;;0.10;;
37201;SDS011;37799;52.390;6.136;2022-07-17T11:46:53;1.50;;;0.13;;
37201;SDS011;37799;52.390;6.136;2022-07-17T11:49:29;0.73;;;0.10;;
37201;SDS011;37799;52.390;6.136;2022-07-17T11:51:56;0.52;;;0.05;;
37201;SDS011;37799;52.390;6.136;2022-07-17T11:54:23;0.98;;;0.10;;
37201;SDS011;37799;52.390;6.136;2022-07-17T11:56:52;0.70;;;0.10;;
37201;SDS011;37799;52.390;6.136;2022-07-17T11:59:26;1.45;;;0.10;;
37201;SDS011;37799;52.390;6.136;2022-07-17T12:01:56;1.10;;;0.20;;
37201;SDS011;37799;52.390;6.136;2022-07-17T12:04:21;1.55;;;0.10;;
37201;SDS011;37799;52.390;6.136;2022-07-17T12:06:57;1.42;;;0.20;;
37201;SDS011;37799;52.390;6.136;2022-07-17T12:09:27;2.75;;;0.30;;
37201;SDS011;37799;52.390;6.136;2022-07-17T12:12:00;1.17;;;0.15;;
37201;SDS011;37799;52.390;6.136;2022-07-17T12:14:26;0.63;;;0.20;;
37201;SDS011;37799;52.390;6.136;2022-07-17T12:16:51;0.90;;;0.20;;
37201;SDS011;37799;52.390;6.136;2022-07-17T12:19:17;0.93;;;0.10;;
37201;SDS011;37799;52.390;6.136;2022-07-17T12:21:48;1.70;;;0.40;;
37201;SDS011;37799;52.390;6.136;2022-07-17T12:24:19;1.38;;;0.30;;
37201;SDS011;37799;52.390;6.136;2022-07-17T12:26:46;0.50;;;0.10;;
37201;SDS011;37799;52.390;6.136;2022-07-17T12:29:12;1.33;;;0.10;;
37201;SDS011;37799;52.390;6.136;2022-07-17T12:31:37;0.30;;;0.10;;
37201;SDS011;37799;52.390;6.136;2022-07-17T12:34:02;1.20;;;0.20;;
37201;SDS011;37799;52.390;6.136;2022-07-17T12:36:27;3.07;;;0.50;;
37201;SDS011;37799;52.390;6.136;2022-07-17T12:38:53;0.87;;;0.20;;
37201;SDS011;37799;52.390;6.136;2022-07-17T12:41:18;0.73;;;0.10;;
37201;SDS011;37799;52.390;6.136;2022-07-17T12:43:43;1.25;;;0.20;;
37201;SDS011;37799;52.390;6.136;2022-07-17T12:46:09;1.02;;;0.20;;
37201;SDS011;37799;52.390;6.136;2022-07-17T12:48:34;1.33;;;0.10;;
37201;SDS011;37799;52.390;6.136;2022-07-17T12:51:03;1.27;;;0.30;;
37201;SDS011;37799;52.390;6.136;2022-07-17T12:53:28;2.15;;;0.30;;
37201;SDS011;37799;52.390;6.136;2022-07-17T12:55:53;1.63;;;0.20;;
37201;SDS011;37799;52.390;6.136;2022-07-17T12:58:19;1.33;;;0.30;;
37201;SDS011;37799;52.390;6.136;2022-07-17T13:00:44;1.53;;;0.40;;
37201;SDS011;37799;52.390;6.136;2022-07-17T13:03:10;2.03;;;0.20;;
37201;SDS011;37799;52.390;6.136;2022-07-17T13:05:35;3.13;;;0.30;;
37201;SDS011;37799;52.390;6.136;2022-07-17T13:08:01;2.10;;;0.20;;
37201;SDS011;37799;52.390;6.136;2022-07-17T13:10:26;1.33;;;0.22;;
37201;SDS011;37799;52.390;6.136;2022-07-17T13:12:52;1.85;;;0.30;;
37201;SDS011;37799;52.390;6.136;2022-07-17T13:15:17;1.58;;;0.22;;
37201;SDS011;37799;52.390;6.136;2022-07-17T13:17:42;2.77;;;0.40;;
37201;SDS011;37799;52.390;6.136;2022-07-17T13:20:08;1.33;;;0.30;;
37201;SDS011;37799;52.390;6.136;2022-07-17T13:22:34;1.63;;;0.30;;
37201;SDS011;37799;52.390;6.136;2022-07-17T13:25:00;2.70;;;0.20;;
37201;SDS011;37799;52.390;6.136;2022-07-17T13:27:25;1.07;;;0.23;;
37201;SDS011;37799;52.390;6.136;2022-07-17T13:29:50;1.43;;;0.20;;
37201;SDS011;37799;52.390;6.136;2022-07-17T13:32:16;1.87;;;0.30;;
37201;SDS011;37799;52.390;6.136;2022-07-17T13:34:41;1.52;;;0.38;;
37201;SDS011;37799;52.390;6.136;2022-07-17T13:37:06;1.17;;;0.30;;
37201;SDS011;37799;52.390;6.136;2022-07-17T13:39:33;2.20;;;0.25;;
37201;SDS011;37799;52.390;6.136;2022-07-17T13:41:59;0.93;;;0.25;;
37201;SDS011;37799;52.390;6.136;2022-07-17T13:44:24;1.70;;;0.30;;
37201;SDS011;37799;52.390;6.136;2022-07-17T13:46:49;1.90;;;0.30;;
37201;SDS011;37799;52.390;6.136;2022-07-17T13:49:15;2.55;;;0.38;;
37201;SDS011;37799;52.390;6.136;2022-07-17T13:51:40;2.67;;;0.40;;
37201;SDS011;37799;52.390;6.136;2022-07-17T13:54:06;1.92;;;0.40;;
37201;SDS011;37799;52.390;6.136;2022-07-17T13:56:32;2.58;;;0.50;;
37201;SDS011;37799;52.390;6.136;2022-07-17T13:58:58;2.10;;;0.30;;
37201;SDS011;37799;52.390;6.136;2022-07-17T14:01:24;1.40;;;0.32;;
37201;SDS011;37799;52.390;6.136;2022-07-17T14:03:49;1.60;;;0.30;;
37201;SDS011;37799;52.390;6.136;2022-07-17T14:06:14;2.70;;;0.55;;
37201;SDS011;37799;52.390;6.136;2022-07-17T14:08:40;1.75;;;0.40;;
37201;SDS011;37799;52.390;6.136;2022-07-17T14:11:05;2.20;;;0.30;;
37201;SDS011;37799;52.390;6.136;2022-07-17T14:13:31;3.05;;;0.52;;
37201;SDS011;37799;52.390;6.136;2022-07-17T14:15:56;2.92;;;0.60;;
37201;SDS011;37799;52.390;6.136;2022-07-17T14:18:22;2.45;;;0.45;;
37201;SDS011;37799;52.390;6.136;2022-07-17T14:20:47;4.60;;;0.60;;
37201;SDS011;37799;52.390;6.136;2022-07-17T14:23:12;2.70;;;0.50;;
37201;SDS011;37799;52.390;6.136;2022-07-17T14:25:38;3.55;;;0.57;;
37201;SDS011;37799;52.390;6.136;2022-07-17T14:28:03;1.50;;;0.35;;
37201;SDS011;37799;52.390;6.136;2022-07-17T14:30:29;2.90;;;0.95;;
37201;SDS011;37799;52.390;6.136;2022-07-17T14:32:54;2.07;;;0.60;;
37201;SDS011;37799;52.390;6.136;2022-07-17T14:35:19;5.43;;;0.40;;
37201;SDS011;37799;52.390;6.136;2022-07-17T14:37:45;2.20;;;0.43;;
37201;SDS011;37799;52.390;6.136;2022-07-17T14:40:11;2.27;;;0.53;;
37201;SDS011;37799;52.390;6.136;2022-07-17T14:42:37;1.33;;;0.30;;
37201;SDS011;37799;52.390;6.136;2022-07-17T14:45:03;2.95;;;0.40;;
37201;SDS011;37799;52.390;6.136;2022-07-17T14:47:29;2.95;;;0.30;;
37201;SDS011;37799;52.390;6.136;2022-07-17T14:49:54;1.20;;;0.40;;
37201;SDS011;37799;52.390;6.136;2022-07-17T14:52:19;2.00;;;0.40;;
37201;SDS011;37799;52.390;6.136;2022-07-17T14:54:44;2.77;;;0.60;;
37201;SDS011;37799;52.390;6.136;2022-07-17T14:57:10;3.83;;;0.40;;
37201;SDS011;37799;52.390;6.136;2022-07-17T14:59:35;2.45;;;0.50;;
37201;SDS011;37799;52.390;6.136;2022-07-17T15:02:01;2.53;;;0.52;;